Startpagina
METAR-TAF:

METAR-TAF

Vliegvelden :

Chulitna, Alaska, Verenigde Staten

breedte: 62-53N, lengte: 149-50W, hoogte: 381 m

Actueel weer

Dit bericht is 1 uur en het 45 minuten geleden gemaakt, om 00:46 UTC
Weinig wind
Temperatuur 11°C
Vochtigheid 94%
Druk 1021 hPa
Zicht: 3.2 km
Verspreide wolken op 500 ft
Geheel bewolkt op 1000 ft
lichte motregen, nevel

METAR: PAEC 180046Z 00000KT 2SM -DZ BR SCT005 OVC010 11/10 A3014 RMK NOSPECI

Tijdstip: 18:31 (02:31 UTC)


TAF: ontbreekt

Waarnemingen en weersverwachtingen van meer dan 4000 vliegvelden (METAR en TAF).

De beschikbare stations zijn de gele en rode punten op de kaart.

Ga met uw muis naar het station om de naam te zien.

Klik dan om waarnemingen en weersverwachtingen te zien.

kaart wijzigen: klik op de groene knoppen met een zwart kruis om in te zoomen, op de groene knop met een streepje om uit te zoomen of op de groene pijlen voor aangrenzende kaarten.


METAR-TAF: